createdAt,value
2023-10-11T00:00:40.651Z,66.35
2023-10-11T00:03:19.301Z,66.31
2023-10-11T00:05:47.190Z,66.38
2023-10-11T00:08:20.042Z,66.36
2023-10-11T00:10:48.573Z,66.32
2023-10-11T00:13:18.447Z,66.27
2023-10-11T00:15:52.002Z,66.13
2023-10-11T00:18:22.349Z,66.40
2023-10-11T00:20:52.911Z,65.85
2023-10-11T00:23:24.977Z,66.61
2023-10-11T00:26:00.045Z,66.35
2023-10-11T00:28:27.807Z,66.63
2023-10-11T00:31:01.174Z,66.82
2023-10-11T00:33:38.508Z,66.59
2023-10-11T00:36:07.003Z,66.76
2023-10-11T00:38:43.975Z,66.82
2023-10-11T00:41:21.304Z,66.63
2023-10-11T00:43:54.804Z,66.54
2023-10-11T00:46:24.004Z,66.56
2023-10-11T00:48:55.621Z,66.75
2023-10-11T00:51:32.550Z,66.82
2023-10-11T00:54:06.076Z,66.32
2023-10-11T00:56:33.842Z,66.34
2023-10-11T00:59:11.703Z,66.99
2023-10-11T01:01:39.189Z,66.56
2023-10-11T01:04:08.124Z,66.81
2023-10-11T01:06:35.578Z,67.09
2023-10-11T01:09:14.704Z,66.62
2023-10-11T01:11:41.401Z,66.85
2023-10-11T01:14:09.775Z,67.27
2023-10-11T01:16:36.431Z,67.15
2023-10-11T01:19:09.047Z,67.30
2023-10-11T01:21:35.555Z,67.02
2023-10-11T01:24:02.136Z,66.70
2023-10-11T01:26:28.891Z,66.56
2023-10-11T01:28:57.874Z,66.14
2023-10-11T01:31:24.953Z,66.17
2023-10-11T01:33:53.546Z,66.43
2023-10-11T01:36:23.143Z,66.56
2023-10-11T01:38:50.612Z,66.32
2023-10-11T01:41:23.983Z,66.40
2023-10-11T01:43:51.699Z,66.37
2023-10-11T01:46:19.848Z,66.92
2023-10-11T01:48:46.603Z,66.66
2023-10-11T01:51:27.320Z,66.80
2023-10-11T01:54:01.196Z,66.72
2023-10-11T01:56:28.722Z,66.68
2023-10-11T01:59:01.777Z,66.25
2023-10-11T02:01:31.644Z,66.68
2023-10-11T02:04:01.021Z,66.94
2023-10-11T02:06:33.726Z,67.28
2023-10-11T02:09:00.918Z,67.58
2023-10-11T02:11:30.780Z,67.83
2023-10-11T02:13:58.782Z,68.19
2023-10-11T02:16:26.314Z,68.50
2023-10-11T02:18:56.798Z,68.54
2023-10-11T02:21:24.798Z,68.68
2023-10-11T02:23:51.476Z,68.69
2023-10-11T02:26:18.379Z,68.92
2023-10-11T02:28:46.199Z,69.26
2023-10-11T02:31:14.306Z,69.12
2023-10-11T02:33:41.478Z,69.09
2023-10-11T02:36:18.134Z,69.27
2023-10-11T02:38:48.913Z,69.56
2023-10-11T02:41:27.669Z,69.90
2023-10-11T02:43:54.533Z,70.11
2023-10-11T02:46:24.637Z,70.15
2023-10-11T02:49:05.631Z,70.32
2023-10-11T02:51:36.341Z,70.46
2023-10-11T02:54:06.482Z,70.53
2023-10-11T02:56:47.722Z,70.50
2023-10-11T02:59:20.630Z,70.35
2023-10-11T03:02:00.315Z,70.35
2023-10-11T03:04:42.860Z,70.76
2023-10-11T03:07:24.905Z,70.80
2023-10-11T03:09:55.546Z,70.69
2023-10-11T03:12:33.435Z,70.88
2023-10-11T03:15:07.422Z,71.36
2023-10-11T03:17:41.796Z,70.16
2023-10-11T03:20:26.106Z,69.83
2023-10-11T03:22:53.383Z,69.97
2023-10-11T03:25:20.658Z,70.41
2023-10-11T03:27:50.358Z,70.61
2023-10-11T03:30:18.053Z,70.31
2023-10-11T03:32:45.893Z,70.09
2023-10-11T03:35:19.803Z,69.59
2023-10-11T03:38:07.625Z,69.36
2023-10-11T03:40:51.217Z,69.66
2023-10-11T03:43:18.632Z,70.19
2023-10-11T03:45:51.658Z,70.09
2023-10-11T03:48:22.070Z,70.08
2023-10-11T03:50:49.345Z,70.18
2023-10-11T03:53:16.685Z,69.36
2023-10-11T03:55:50.222Z,69.17
2023-10-11T03:58:34.041Z,69.11
2023-10-11T04:01:07.384Z,69.22
2023-10-11T04:03:35.336Z,69.37
2023-10-11T04:06:02.595Z,69.58
2023-10-11T04:08:29.378Z,69.38
2023-10-11T04:10:57.817Z,69.10
2023-10-11T04:13:27.105Z,69.56
2023-10-11T04:15:55.960Z,69.41
2023-10-11T04:18:32.977Z,69.42
2023-10-11T04:21:16.040Z,69.27
2023-10-11T04:23:46.730Z,69.76
2023-10-11T04:26:31.891Z,69.53
2023-10-11T04:29:07.431Z,70.02
2023-10-11T04:31:55.088Z,70.33
2023-10-11T04:34:24.564Z,70.38
2023-10-11T04:36:56.367Z,69.54
2023-10-11T04:39:29.905Z,69.60
2023-10-11T04:41:58.314Z,68.81
2023-10-11T04:44:25.244Z,68.56
2023-10-11T04:47:01.971Z,68.35
2023-10-11T04:49:31.728Z,68.58
2023-10-11T04:51:58.795Z,68.37
2023-10-11T04:54:37.872Z,68.48
2023-10-11T04:57:18.493Z,68.47
2023-10-11T04:59:47.969Z,68.90
2023-10-11T05:02:25.239Z,69.15
2023-10-11T05:04:53.118Z,69.40
2023-10-11T05:07:23.118Z,68.98
2023-10-11T05:10:22.105Z,69.11
2023-10-11T05:12:58.736Z,69.58
2023-10-11T05:15:31.096Z,68.73
2023-10-11T05:18:00.916Z,68.37
2023-10-11T05:20:42.672Z,67.78
2023-10-11T05:23:12.935Z,68.10
2023-10-11T05:25:54.620Z,67.99
2023-10-11T05:28:23.594Z,68.31
2023-10-11T05:31:07.840Z,68.63
2023-10-11T05:33:58.936Z,68.98
2023-10-11T05:36:41.330Z,68.60
2023-10-11T05:39:26.676Z,68.70
2023-10-11T05:42:11.995Z,68.77
2023-10-11T05:44:57.268Z,68.79
2023-10-11T05:47:42.629Z,68.33
2023-10-11T05:50:28.124Z,67.92
2023-10-11T05:52:56.954Z,67.90
2023-10-11T05:55:24.104Z,67.88
2023-10-11T05:57:51.395Z,68.36
2023-10-11T06:00:27.509Z,68.47
2023-10-11T06:02:54.404Z,68.42
2023-10-11T06:05:23.691Z,68.05
2023-10-11T06:08:01.914Z,68.21
2023-10-11T06:10:33.391Z,68.12
2023-10-11T06:13:00.093Z,67.97
2023-10-11T06:15:26.649Z,68.23
2023-10-11T06:17:56.148Z,68.13
2023-10-11T06:20:28.717Z,68.04
2023-10-11T06:22:55.800Z,68.02
2023-10-11T06:25:45.188Z,67.63
2023-10-11T06:28:15.350Z,67.43
2023-10-11T06:30:44.045Z,67.37
2023-10-11T06:33:13.920Z,67.29
2023-10-11T06:35:50.499Z,67.16
2023-10-11T06:38:17.455Z,67.34
2023-10-11T06:40:55.683Z,67.13
2023-10-11T06:43:22.573Z,67.55
2023-10-11T06:45:50.706Z,68.13
2023-10-11T06:48:17.706Z,68.70
2023-10-11T06:50:44.372Z,69.32
2023-10-11T06:53:11.680Z,69.42
2023-10-11T06:55:49.117Z,69.90
2023-10-11T06:58:20.611Z,69.47
2023-10-11T07:00:47.641Z,69.88
2023-10-11T07:03:21.866Z,70.17
2023-10-11T07:05:50.390Z,70.77
2023-10-11T07:08:21.448Z,71.13
2023-10-11T07:11:07.130Z,71.31
2023-10-11T07:13:53.106Z,71.77
2023-10-11T07:16:22.877Z,71.92
2023-10-11T07:18:51.888Z,72.03
2023-10-11T07:21:20.600Z,72.18
2023-10-11T07:23:56.844Z,71.91
2023-10-11T07:26:26.347Z,71.53
2023-10-11T07:28:54.140Z,71.16
2023-10-11T07:31:21.929Z,70.30
2023-10-11T07:33:52.078Z,70.40
2023-10-11T07:36:20.260Z,69.83
2023-10-11T07:38:48.139Z,69.81
2023-10-11T07:41:20.651Z,69.89
2023-10-11T07:43:47.468Z,69.93
2023-10-11T07:46:14.702Z,70.07
2023-10-11T07:48:41.880Z,70.26
2023-10-11T07:51:11.323Z,69.80
2023-10-11T07:53:44.855Z,70.05
2023-10-11T07:56:11.716Z,69.68
2023-10-11T07:58:46.285Z,68.94
2023-10-11T08:01:17.929Z,68.58
2023-10-11T08:03:47.383Z,68.19
2023-10-11T08:06:15.285Z,67.87
2023-10-11T08:08:41.772Z,67.78
2023-10-11T08:11:20.193Z,67.17
2023-10-11T08:13:49.150Z,66.89
2023-10-11T08:16:19.284Z,67.04
2023-10-11T08:18:47.691Z,66.86
2023-10-11T08:21:14.425Z,66.42
2023-10-11T08:23:44.710Z,65.96
2023-10-11T08:26:22.238Z,65.90
2023-10-11T08:28:52.943Z,65.62
2023-10-11T08:31:35.672Z,66.15
2023-10-11T08:34:04.710Z,66.61
2023-10-11T08:36:34.701Z,66.77
2023-10-11T08:39:06.582Z,67.25
2023-10-11T08:41:35.095Z,67.13
2023-10-11T08:44:03.073Z,67.69
2023-10-11T08:46:33.146Z,67.27
2023-10-11T08:49:01.800Z,67.33
2023-10-11T08:51:37.863Z,68.23
2023-10-11T08:54:15.484Z,68.95
2023-10-11T08:56:49.776Z,68.60
2023-10-11T08:59:16.980Z,69.08
2023-10-11T09:01:46.270Z,68.44
2023-10-11T09:04:14.406Z,68.15
2023-10-11T09:06:45.891Z,68.03
2023-10-11T09:09:35.162Z,66.86
2023-10-11T09:12:21.926Z,67.49
2023-10-11T09:15:01.770Z,66.61
2023-10-11T09:17:28.811Z,66.19
2023-10-11T09:20:01.077Z,65.63
2023-10-11T09:22:29.298Z,65.04
2023-10-11T09:25:06.954Z,64.47
2023-10-11T09:27:55.494Z,63.89
2023-10-11T09:30:25.136Z,63.52
2023-10-11T09:33:00.652Z,62.95
2023-10-11T09:35:28.720Z,62.74
2023-10-11T09:37:59.853Z,62.05
2023-10-11T09:40:35.626Z,61.49
2023-10-11T09:43:02.727Z,61.55
2023-10-11T09:45:43.782Z,61.11
2023-10-11T09:48:13.493Z,61.91
2023-10-11T09:50:43.779Z,60.91
2023-10-11T09:53:14.417Z,60.53
2023-10-11T09:55:47.139Z,60.32
2023-10-11T09:58:29.896Z,59.67
2023-10-11T10:01:11.569Z,59.19
2023-10-11T10:03:46.508Z,57.70
2023-10-11T10:06:20.255Z,58.25
2023-10-11T10:08:51.490Z,57.99
2023-10-11T10:11:20.699Z,58.04
2023-10-11T10:13:59.912Z,57.52
2023-10-11T10:17:05.316Z,57.73
2023-10-11T10:19:40.892Z,57.85
2023-10-11T10:22:17.949Z,58.22
2023-10-11T10:24:45.994Z,58.38
2023-10-11T10:27:34.451Z,58.48
2023-10-11T10:30:02.467Z,58.13
2023-10-11T10:32:29.102Z,58.29
2023-10-11T10:35:20.740Z,58.51
2023-10-11T10:37:47.208Z,58.89
2023-10-11T10:40:26.099Z,58.60
2023-10-11T10:43:15.466Z,58.91
2023-10-11T10:45:42.467Z,59.13
2023-10-11T10:48:20.458Z,59.07
2023-10-11T10:50:51.885Z,59.37
2023-10-11T10:53:20.095Z,59.23
2023-10-11T10:55:46.833Z,58.84
2023-10-11T10:58:20.607Z,59.10
2023-10-11T11:00:56.112Z,58.95
2023-10-11T11:03:24.577Z,59.16
2023-10-11T11:06:02.681Z,59.31
2023-10-11T11:08:30.622Z,59.58
2023-10-11T11:11:23.607Z,59.09
2023-10-11T11:13:50.669Z,59.50
2023-10-11T11:16:23.285Z,58.97
2023-10-11T11:18:49.944Z,59.63
2023-10-11T11:21:26.693Z,59.51
2023-10-11T11:23:53.878Z,59.49
2023-10-11T11:29:09.606Z,58.79
2023-10-11T11:31:54.312Z,58.67
2023-10-11T11:34:38.439Z,59.29
2023-10-11T11:39:50.606Z,59.02
2023-10-11T11:42:20.462Z,58.58
2023-10-11T11:44:47.983Z,58.95
2023-10-11T11:47:25.077Z,58.78
2023-10-11T11:49:52.690Z,58.00
2023-10-11T11:52:19.317Z,58.05
2023-10-11T11:54:45.838Z,58.03
2023-10-11T11:57:12.540Z,58.15
2023-10-11T11:59:40.147Z,57.50
2023-10-11T12:02:17.587Z,57.46
2023-10-11T12:04:49.185Z,57.81
2023-10-11T12:07:16.037Z,57.52
2023-10-11T12:09:52.200Z,56.90
2023-10-11T12:12:28.481Z,57.14
2023-10-11T12:14:55.813Z,57.01
2023-10-11T12:17:22.485Z,56.88
2023-10-11T12:19:54.458Z,56.74
2023-10-11T12:22:23.563Z,56.73
2023-10-11T12:24:50.284Z,56.45
2023-10-11T12:27:17.441Z,56.49
2023-10-11T12:30:07.209Z,56.14
2023-10-11T12:32:35.235Z,55.88
2023-10-11T12:35:07.238Z,55.46
2023-10-11T12:37:36.831Z,55.60
2023-10-11T12:40:12.672Z,55.37
2023-10-11T12:42:39.329Z,54.63
2023-10-11T12:45:09.198Z,54.36
2023-10-11T12:47:36.162Z,54.00
2023-10-11T12:50:04.912Z,54.26
2023-10-11T12:52:34.245Z,54.06
2023-10-11T12:55:01.703Z,52.54
2023-10-11T12:57:29.371Z,50.80
2023-10-11T12:59:59.667Z,49.39
2023-10-11T13:02:34.913Z,47.97
2023-10-11T13:05:01.779Z,47.64
2023-10-11T13:07:28.414Z,48.15
2023-10-11T13:09:55.396Z,48.24
2023-10-11T13:12:23.463Z,48.20
2023-10-11T13:14:52.319Z,47.65
2023-10-11T13:17:18.840Z,47.32
2023-10-11T13:19:45.456Z,47.61
2023-10-11T13:22:13.960Z,46.98
2023-10-11T13:24:40.654Z,47.20
2023-10-11T13:27:08.329Z,47.03
2023-10-11T13:29:35.011Z,46.55
2023-10-11T13:32:01.636Z,46.80
2023-10-11T13:34:35.355Z,46.40
2023-10-11T13:37:04.616Z,46.64
2023-10-11T13:39:40.942Z,46.49
2023-10-11T13:42:15.789Z,46.43
2023-10-11T13:44:44.479Z,46.74
2023-10-11T13:47:11.133Z,46.12
2023-10-11T13:49:42.013Z,46.41
2023-10-11T13:52:08.797Z,46.63
2023-10-11T13:54:52.615Z,46.51
2023-10-11T13:57:19.482Z,45.91
2023-10-11T13:59:48.017Z,45.00
2023-10-11T14:02:19.995Z,45.08
2023-10-11T14:04:49.104Z,45.74
2023-10-11T14:07:34.981Z,45.99
2023-10-11T14:10:11.641Z,46.60
2023-10-11T14:12:40.107Z,45.59
2023-10-11T14:15:13.011Z,45.04
2023-10-11T14:17:40.034Z,45.01
2023-10-11T14:20:08.875Z,45.67
2023-10-11T14:22:35.810Z,45.77
2023-10-11T14:25:02.502Z,45.70
2023-10-11T14:27:31.138Z,46.16
2023-10-11T14:29:58.368Z,46.18
2023-10-11T14:32:25.114Z,45.92
2023-10-11T14:34:52.804Z,46.60
2023-10-11T14:37:20.607Z,46.66
2023-10-11T14:39:50.679Z,46.67
2023-10-11T14:42:17.614Z,46.55
2023-10-11T14:44:44.293Z,46.05
2023-10-11T14:47:11.951Z,46.26
2023-10-11T14:49:38.662Z,46.32
2023-10-11T14:52:09.106Z,46.31
2023-10-11T14:54:40.569Z,46.66
2023-10-11T14:57:08.579Z,46.24
2023-10-11T14:59:36.337Z,46.29
2023-10-11T15:02:06.278Z,46.16
2023-10-11T15:04:37.155Z,46.29
2023-10-11T15:07:07.480Z,46.08
2023-10-11T15:09:37.008Z,45.87
2023-10-11T15:12:04.318Z,45.95
2023-10-11T15:14:30.855Z,46.48
2023-10-11T15:16:59.516Z,46.79
2023-10-11T15:19:26.405Z,46.97
2023-10-11T15:21:53.749Z,47.62
2023-10-11T15:24:24.330Z,47.25
2023-10-11T15:26:51.937Z,47.48
2023-10-11T15:29:19.186Z,47.50
2023-10-11T15:31:45.807Z,47.50
2023-10-11T15:34:14.698Z,47.65
2023-10-11T15:36:42.241Z,47.73
2023-10-11T15:39:11.247Z,47.96
2023-10-11T15:41:38.108Z,48.57
2023-10-11T15:44:04.933Z,48.79
2023-10-11T15:46:31.575Z,49.54
2023-10-11T15:49:00.430Z,49.83
2023-10-11T15:51:27.963Z,50.54
2023-10-11T15:53:54.530Z,51.20
2023-10-11T15:56:21.349Z,51.58
2023-10-11T15:58:47.924Z,52.49
2023-10-11T16:01:15.701Z,52.91
2023-10-11T16:03:45.138Z,52.79
2023-10-11T16:06:13.130Z,53.30
2023-10-11T16:08:40.059Z,53.69
2023-10-11T16:11:11.566Z,54.03
2023-10-11T16:13:38.605Z,54.53
2023-10-11T16:16:08.463Z,54.62
2023-10-11T16:18:35.820Z,55.02
2023-10-11T16:21:04.423Z,55.43
2023-10-11T16:23:33.154Z,55.94
2023-10-11T16:26:01.184Z,56.63
2023-10-11T16:28:29.042Z,56.49
2023-10-11T16:30:59.849Z,56.78
2023-10-11T16:33:33.440Z,57.11
2023-10-11T16:36:02.386Z,57.46
2023-10-11T16:38:33.730Z,57.61
2023-10-11T16:41:01.304Z,58.02
2023-10-11T16:43:28.270Z,57.88
2023-10-11T16:45:54.877Z,57.72
2023-10-11T16:48:21.418Z,57.41
2023-10-11T16:50:49.697Z,58.04
2023-10-11T16:53:16.267Z,58.05
2023-10-11T16:55:43.354Z,58.59
2023-10-11T16:58:10.801Z,58.76
2023-10-11T17:00:38.271Z,58.67
2023-10-11T17:03:05.352Z,58.38
2023-10-11T17:05:35.285Z,58.36
2023-10-11T17:08:02.527Z,58.62
2023-10-11T17:10:29.106Z,58.73
2023-10-11T17:12:56.157Z,58.96
2023-10-11T17:15:25.444Z,59.36
2023-10-11T17:17:53.843Z,59.50
2023-10-11T17:20:22.361Z,58.99
2023-10-11T17:22:51.368Z,59.27
2023-10-11T17:25:22.312Z,59.48
2023-10-11T17:27:52.499Z,59.30
2023-10-11T17:30:20.447Z,58.73
2023-10-11T17:32:48.465Z,58.64
2023-10-11T17:35:16.454Z,58.69
2023-10-11T17:37:47.907Z,58.50
2023-10-11T17:40:19.089Z,58.28
2023-10-11T17:42:49.698Z,58.22
2023-10-11T17:45:18.429Z,58.11
2023-10-11T17:47:45.139Z,58.13
2023-10-11T17:50:14.714Z,58.21
2023-10-11T17:52:42.383Z,58.02
2023-10-11T17:55:09.723Z,57.97
2023-10-11T17:57:37.596Z,58.12
2023-10-11T18:00:08.411Z,57.53
2023-10-11T18:02:37.197Z,58.00
2023-10-11T18:05:08.583Z,58.28
2023-10-11T18:07:36.003Z,57.71
2023-10-11T18:10:06.552Z,57.56
2023-10-11T18:12:33.734Z,57.18
2023-10-11T18:15:01.519Z,57.02
2023-10-11T18:17:30.849Z,56.90
2023-10-11T18:19:58.155Z,56.95
2023-10-11T18:22:30.341Z,57.12
2023-10-11T18:24:57.457Z,57.58
2023-10-11T18:27:23.990Z,57.61
2023-10-11T18:29:50.648Z,57.87
2023-10-11T18:32:20.159Z,58.44
2023-10-11T18:34:50.118Z,58.09
2023-10-11T18:37:17.497Z,57.54
2023-10-11T18:39:45.741Z,57.51
2023-10-11T18:42:16.454Z,56.97
2023-10-11T18:44:43.113Z,56.56
2023-10-11T18:47:11.020Z,56.04
2023-10-11T18:49:38.675Z,56.36
2023-10-11T18:52:05.818Z,56.38
2023-10-11T18:54:32.420Z,56.64
2023-10-11T18:56:59.061Z,56.23
2023-10-11T18:59:26.065Z,56.15
2023-10-11T19:01:52.933Z,55.67
2023-10-11T19:04:22.282Z,55.63
2023-10-11T19:06:49.378Z,55.27
2023-10-11T19:09:16.033Z,55.54
2023-10-11T19:11:43.956Z,55.31
2023-10-11T19:14:10.556Z,55.29
2023-10-11T19:16:37.785Z,55.20
2023-10-11T19:19:04.385Z,54.80
2023-10-11T19:21:31.802Z,55.67
2023-10-11T19:23:58.326Z,55.25
2023-10-11T19:26:25.107Z,55.12
2023-10-11T19:28:53.003Z,55.56
2023-10-11T19:31:20.090Z,55.42
2023-10-11T19:33:46.712Z,55.75
2023-10-11T19:36:14.004Z,55.88
2023-10-11T19:38:41.036Z,55.32
2023-10-11T19:41:07.604Z,55.78
2023-10-11T19:43:36.497Z,55.45
2023-10-11T19:46:10.126Z,55.49
2023-10-11T19:48:36.764Z,55.47
2023-10-11T19:51:03.973Z,55.66
2023-10-11T19:53:30.700Z,55.51
2023-10-11T19:55:57.898Z,55.70
2023-10-11T19:58:25.474Z,55.61
2023-10-11T20:00:53.101Z,55.29
2023-10-11T20:03:19.674Z,55.64
2023-10-11T20:05:46.708Z,55.49
2023-10-11T20:08:16.687Z,55.46
2023-10-11T20:10:48.084Z,55.48
2023-10-11T20:13:14.699Z,56.06
2023-10-11T20:15:42.055Z,55.75
2023-10-11T20:18:09.346Z,55.63
2023-10-11T20:20:37.603Z,55.87
2023-10-11T20:23:08.075Z,55.99
2023-10-11T20:25:35.152Z,56.36
2023-10-11T20:28:01.611Z,56.38
2023-10-11T20:30:28.323Z,56.14
2023-10-11T20:32:57.314Z,56.74
2023-10-11T20:35:25.404Z,56.73
2023-10-11T20:37:53.755Z,56.62
2023-10-11T20:40:23.392Z,57.00
2023-10-11T20:42:54.467Z,57.15
2023-10-11T20:45:23.440Z,57.15
2023-10-11T20:47:54.553Z,56.94
2023-10-11T20:50:23.141Z,57.01
2023-10-11T20:52:51.433Z,57.63
2023-10-11T20:57:56.272Z,57.61
2023-10-11T21:00:23.790Z,57.51
2023-10-11T21:02:50.661Z,57.71
2023-10-11T21:05:17.370Z,57.60
2023-10-11T21:07:43.863Z,57.77
2023-10-11T21:10:13.611Z,57.93
2023-10-11T21:12:41.303Z,57.71
2023-10-11T21:15:13.812Z,57.76
2023-10-11T21:17:44.288Z,58.13
2023-10-11T21:20:12.458Z,58.24
2023-10-11T21:22:41.100Z,58.35
2023-10-11T21:25:15.198Z,58.02
2023-10-11T21:27:48.737Z,58.32
2023-10-11T21:30:19.987Z,58.29
2023-10-11T21:32:51.933Z,58.24
2023-10-11T21:35:22.679Z,58.30
2023-10-11T21:37:50.003Z,58.41
2023-10-11T21:40:17.868Z,58.66
2023-10-11T21:42:44.465Z,58.67
2023-10-11T21:45:15.231Z,58.62
2023-10-11T21:47:46.507Z,58.92
2023-10-11T21:50:14.000Z,58.79
2023-10-11T21:52:44.225Z,58.75
2023-10-11T21:55:15.079Z,59.14
2023-10-11T21:57:44.437Z,59.38
2023-10-11T22:00:16.886Z,59.53
2023-10-11T22:02:47.382Z,59.27
2023-10-11T22:05:15.039Z,59.38
2023-10-11T22:07:48.203Z,59.89
2023-10-11T22:10:16.452Z,59.63
2023-10-11T22:12:46.884Z,59.86
2023-10-11T22:15:14.355Z,59.96
2023-10-11T22:17:55.710Z,60.33
2023-10-11T22:20:25.823Z,60.10
2023-10-11T22:22:53.066Z,60.25
2023-10-11T22:25:22.639Z,60.08
2023-10-11T22:27:49.447Z,59.77
2023-10-11T22:30:24.245Z,60.24
2023-10-11T22:33:09.615Z,60.30
2023-10-11T22:35:37.464Z,60.06
2023-10-11T22:38:04.879Z,59.94
2023-10-11T22:40:32.694Z,60.15
2023-10-11T22:43:05.152Z,60.13
2023-10-11T22:45:41.058Z,60.05
2023-10-11T22:48:07.716Z,60.22
2023-10-11T22:50:34.920Z,60.54
2023-10-11T22:53:02.681Z,60.34
2023-10-11T22:55:32.668Z,60.51
2023-10-11T22:58:03.719Z,60.35
2023-10-11T23:00:34.068Z,60.35
2023-10-11T23:03:02.466Z,60.49
2023-10-11T23:05:32.727Z,60.16
2023-10-11T23:07:59.790Z,60.55
2023-10-11T23:10:27.515Z,60.41
2023-10-11T23:12:55.938Z,60.97
2023-10-11T23:15:34.991Z,60.78
2023-10-11T23:18:14.439Z,60.53
2023-10-11T23:20:46.426Z,60.91
2023-10-11T23:23:14.078Z,60.85
2023-10-11T23:25:50.567Z,60.84
2023-10-11T23:28:22.983Z,60.48
2023-10-11T23:30:52.692Z,60.58
2023-10-11T23:33:19.821Z,60.56
2023-10-11T23:35:46.597Z,60.75
2023-10-11T23:38:28.312Z,60.57
2023-10-11T23:40:56.263Z,60.83
2023-10-11T23:43:30.096Z,60.47
2023-10-11T23:45:57.986Z,60.45
2023-10-11T23:48:34.635Z,60.60
2023-10-11T23:51:06.373Z,60.24
2023-10-11T23:53:44.312Z,60.69
2023-10-11T23:56:21.672Z,60.14
2023-10-11T23:58:57.902Z,60.60
